createdAt,value
2023-01-19T00:04:24.583Z,18.34
2023-01-19T00:09:46.481Z,18.31
2023-01-19T00:15:08.779Z,18.28
2023-01-19T00:20:32.939Z,18.24
2023-01-19T00:25:54.799Z,18.21
2023-01-19T00:31:16.648Z,18.19
2023-01-19T00:36:38.384Z,18.17
2023-01-19T00:42:18.997Z,18.12
2023-01-19T00:47:40.853Z,18.10
2023-01-19T00:53:03.443Z,18.06
2023-01-19T00:58:25.341Z,18.03
2023-01-19T01:03:47.059Z,18.01
2023-01-19T01:09:12.193Z,17.97
2023-01-19T01:14:34.056Z,17.94
2023-01-19T01:19:55.790Z,17.91
2023-01-19T01:25:19.889Z,17.89
2023-01-19T01:30:41.592Z,17.85
2023-01-19T01:36:03.952Z,17.82
2023-01-19T01:41:27.457Z,17.79
2023-01-19T01:46:49.302Z,17.78
2023-01-19T01:52:12.053Z,17.75
2023-01-19T01:57:39.063Z,17.74
2023-01-19T02:03:01.272Z,17.71
2023-01-19T02:08:58.439Z,17.71
2023-01-19T02:14:20.407Z,17.66
2023-01-19T02:19:43.812Z,17.65
2023-01-19T02:25:07.159Z,17.63
2023-01-19T02:30:29.135Z,17.60
2023-01-19T02:35:53.751Z,17.59
2023-01-19T02:41:20.809Z,17.58
2023-01-19T02:46:42.495Z,17.56
2023-01-19T02:52:04.744Z,17.53
2023-01-19T02:57:26.373Z,17.52
2023-01-19T03:03:16.069Z,17.52
2023-01-19T03:09:26.664Z,17.50
2023-01-19T03:14:49.207Z,17.46
2023-01-19T03:20:14.140Z,17.45
2023-01-19T03:25:39.808Z,17.45
2023-01-19T03:31:09.860Z,17.41
2023-01-19T03:36:37.513Z,17.41
2023-01-19T03:42:03.314Z,17.40
2023-01-19T03:47:25.707Z,17.38
2023-01-19T03:53:06.481Z,17.39
2023-01-19T03:58:28.604Z,17.35
2023-01-19T04:03:51.839Z,17.34
2023-01-19T04:09:13.737Z,17.34
2023-01-19T04:14:35.495Z,17.32
2023-01-19T04:19:57.215Z,17.32
2023-01-19T04:25:18.944Z,17.30
2023-01-19T04:30:40.689Z,17.29
2023-01-19T04:36:02.518Z,17.26
2023-01-19T04:41:24.187Z,17.24
2023-01-19T04:46:45.877Z,17.24
2023-01-19T04:52:07.657Z,17.23
2023-01-19T04:57:30.469Z,17.21
2023-01-19T05:02:52.416Z,17.21
2023-01-19T05:08:14.346Z,17.20
2023-01-19T05:13:36.520Z,17.18
2023-01-19T05:18:58.382Z,17.17
2023-01-19T05:24:20.358Z,17.16
2023-01-19T05:29:42.309Z,17.15
2023-01-19T05:35:04.242Z,17.14
2023-01-19T05:40:26.197Z,17.12
2023-01-19T05:45:47.947Z,17.10
2023-01-19T05:51:09.800Z,17.09
2023-01-19T05:56:31.724Z,17.10
2023-01-19T06:01:54.221Z,17.08
2023-01-19T06:07:15.962Z,17.06
2023-01-19T06:12:41.695Z,17.06
2023-01-19T06:18:03.503Z,17.02
2023-01-19T06:23:26.317Z,17.04
2023-01-19T06:28:48.768Z,17.03
2023-01-19T06:34:11.113Z,17.03
2023-01-19T06:39:33.293Z,17.04
2023-01-19T06:44:55.023Z,17.03
2023-01-19T06:50:16.881Z,17.03
2023-01-19T06:55:39.339Z,17.03
2023-01-19T07:01:10.745Z,17.03
2023-01-19T07:06:32.582Z,17.02
2023-01-19T07:11:54.865Z,17.01
2023-01-19T07:17:16.702Z,16.99
2023-01-19T07:22:38.415Z,16.99
2023-01-19T07:28:00.324Z,16.97
2023-01-19T07:33:22.754Z,16.96
2023-01-19T07:38:44.488Z,16.93
2023-01-19T07:44:06.242Z,16.92
2023-01-19T07:49:28.126Z,16.90
2023-01-19T07:54:51.098Z,16.90
2023-01-19T08:00:14.614Z,16.90
2023-01-19T08:05:36.473Z,16.87
2023-01-19T08:10:58.616Z,16.88
2023-01-19T08:16:20.421Z,16.86
2023-01-19T08:21:42.118Z,16.85
2023-01-19T08:27:04.166Z,16.83
2023-01-19T08:32:26.048Z,16.83
2023-01-19T08:37:47.792Z,16.81
2023-01-19T08:43:15.712Z,16.81
2023-01-19T08:48:39.745Z,16.80
2023-01-19T08:54:01.770Z,16.86
2023-01-19T08:59:23.494Z,17.07
2023-01-19T09:04:45.198Z,17.32
2023-01-19T09:10:08.147Z,17.53
2023-01-19T09:15:30.794Z,17.73
2023-01-19T09:20:52.517Z,17.79
2023-01-19T09:26:14.259Z,17.79
2023-01-19T09:31:36.018Z,17.75
2023-01-19T09:36:57.847Z,17.71
2023-01-19T09:42:26.935Z,17.65
2023-01-19T09:47:51.042Z,17.59
2023-01-19T09:53:50.709Z,17.51
2023-01-19T09:59:25.302Z,17.44
2023-01-19T10:04:59.322Z,17.36
2023-01-19T10:10:29.064Z,17.32
2023-01-19T10:16:31.718Z,17.25
2023-01-19T10:21:57.999Z,17.21
2023-01-19T10:27:34.405Z,17.16
2023-01-19T10:32:56.276Z,17.11
2023-01-19T10:38:22.418Z,17.07
2023-01-19T10:43:45.776Z,17.03
2023-01-19T10:49:25.589Z,17.01
2023-01-19T10:54:48.712Z,16.96
2023-01-19T11:00:40.778Z,16.93
2023-01-19T11:06:17.686Z,16.89
2023-01-19T11:11:45.518Z,16.85
2023-01-19T11:17:20.062Z,16.85
2023-01-19T11:22:41.799Z,16.80
2023-01-19T11:28:04.207Z,16.78
2023-01-19T11:33:34.951Z,16.78
2023-01-19T11:39:04.953Z,16.75
2023-01-19T11:44:52.551Z,16.73
2023-01-19T11:50:24.731Z,16.71
2023-01-19T11:56:01.671Z,16.68
2023-01-19T12:01:32.704Z,16.68
2023-01-19T12:06:56.125Z,16.68
2023-01-19T12:12:31.076Z,16.81
2023-01-19T12:17:58.684Z,17.04
2023-01-19T12:23:59.266Z,17.30
2023-01-19T12:29:24.209Z,17.47
2023-01-19T12:34:48.170Z,17.60
2023-01-19T12:40:28.038Z,17.66
2023-01-19T12:45:49.923Z,17.63
2023-01-19T12:51:23.670Z,17.60
2023-01-19T12:56:45.646Z,17.53
2023-01-19T13:02:26.813Z,17.47
2023-01-19T13:08:04.969Z,17.39
2023-01-19T13:13:32.009Z,17.32
2023-01-19T13:18:55.998Z,17.25
2023-01-19T13:24:22.537Z,17.20
2023-01-19T13:29:44.662Z,17.16
2023-01-19T13:35:13.359Z,17.12
2023-01-19T13:40:41.146Z,17.08
2023-01-19T13:46:04.333Z,17.04
2023-01-19T13:51:26.128Z,17.00
2023-01-19T13:56:50.322Z,16.95
2023-01-19T14:02:14.025Z,16.92
2023-01-19T14:07:35.769Z,16.88
2023-01-19T14:13:19.154Z,16.86
2023-01-19T14:18:40.901Z,16.82
2023-01-19T14:24:24.078Z,16.81
2023-01-19T14:29:47.677Z,16.77
2023-01-19T14:35:09.656Z,16.74
2023-01-19T14:40:31.923Z,16.72
2023-01-19T14:45:54.677Z,16.71
2023-01-19T14:51:20.698Z,16.69
2023-01-19T14:56:42.423Z,16.66
2023-01-19T15:02:04.258Z,16.65
2023-01-19T15:07:26.164Z,16.62
2023-01-19T15:12:49.390Z,16.63
2023-01-19T15:18:17.419Z,16.71
2023-01-19T15:23:39.146Z,16.85
2023-01-19T15:29:00.826Z,17.05
2023-01-19T15:34:22.548Z,17.28
2023-01-19T15:39:44.340Z,17.48
2023-01-19T15:45:25.246Z,17.62
2023-01-19T15:50:47.949Z,17.65
2023-01-19T15:56:17.553Z,17.63
2023-01-19T16:01:40.649Z,17.56
2023-01-19T16:07:02.519Z,17.51
2023-01-19T16:12:39.733Z,17.45
2023-01-19T16:18:01.524Z,17.39
2023-01-19T16:23:23.256Z,17.34
2023-01-19T16:28:44.937Z,17.30
2023-01-19T16:34:07.427Z,17.24
2023-01-19T16:39:29.139Z,17.17
2023-01-19T16:44:51.083Z,17.15
2023-01-19T16:50:13.143Z,17.12
2023-01-19T16:55:34.963Z,17.08
2023-01-19T17:00:56.755Z,17.03
2023-01-19T17:06:22.894Z,17.00
2023-01-19T17:11:45.365Z,16.96
2023-01-19T17:17:09.507Z,16.89
2023-01-19T17:22:31.178Z,16.84
2023-01-19T17:27:52.891Z,16.83
2023-01-19T17:33:14.632Z,16.80
2023-01-19T17:38:37.125Z,16.90
2023-01-19T17:44:00.321Z,17.42
2023-01-19T17:49:22.120Z,18.06
2023-01-19T17:54:43.860Z,18.67
2023-01-19T18:00:07.744Z,19.22
2023-01-19T18:05:29.467Z,19.62
2023-01-19T18:10:58.473Z,20.01
2023-01-19T18:16:26.029Z,20.16
2023-01-19T18:21:48.563Z,20.16
2023-01-19T18:27:10.842Z,20.06
2023-01-19T18:32:34.912Z,19.93
2023-01-19T18:37:58.664Z,19.76
2023-01-19T18:43:20.367Z,19.56
2023-01-19T18:48:42.157Z,19.41
2023-01-19T18:54:04.050Z,19.34
2023-01-19T18:59:25.847Z,19.22
2023-01-19T19:04:47.533Z,19.15
2023-01-19T19:10:10.037Z,19.13
2023-01-19T19:15:33.132Z,19.27
2023-01-19T19:20:54.880Z,19.54
2023-01-19T19:26:16.612Z,19.84
2023-01-19T19:31:38.385Z,20.16
2023-01-19T19:37:01.308Z,20.43
2023-01-19T19:42:23.678Z,20.66
2023-01-19T19:47:45.556Z,20.84
2023-01-19T19:53:07.285Z,20.99
2023-01-19T19:58:30.723Z,21.11
2023-01-19T20:03:52.661Z,21.18
2023-01-19T20:09:16.282Z,21.28
2023-01-19T20:14:38.084Z,21.37
2023-01-19T20:19:59.794Z,21.49
2023-01-19T20:25:21.540Z,21.59
2023-01-19T20:30:43.351Z,21.64
2023-01-19T20:36:05.629Z,21.61
2023-01-19T20:41:27.690Z,21.49
2023-01-19T20:46:50.274Z,21.36
2023-01-19T20:52:12.061Z,21.22
2023-01-19T20:57:33.833Z,21.10
2023-01-19T21:02:56.678Z,20.96
2023-01-19T21:08:18.529Z,20.82
2023-01-19T21:13:40.421Z,20.71
2023-01-19T21:19:02.524Z,20.60
2023-01-19T21:24:24.235Z,20.52
2023-01-19T21:29:48.239Z,20.52
2023-01-19T21:35:09.992Z,20.55
2023-01-19T21:40:32.219Z,20.55
2023-01-19T21:45:54.006Z,20.46
2023-01-19T21:51:16.272Z,20.34
2023-01-19T21:56:38.436Z,20.20
2023-01-19T22:02:00.326Z,20.09
2023-01-19T22:07:22.157Z,19.95
2023-01-19T22:12:44.064Z,19.84
2023-01-19T22:18:06.120Z,19.71
2023-01-19T22:23:27.840Z,19.56
2023-01-19T22:28:54.015Z,19.45
2023-01-19T22:34:17.333Z,19.34
2023-01-19T22:39:39.021Z,19.22
2023-01-19T22:45:00.699Z,19.12
2023-01-19T22:50:22.429Z,19.05
2023-01-19T22:55:44.231Z,18.96
2023-01-19T23:01:10.875Z,18.87
2023-01-19T23:06:36.377Z,18.80
2023-01-19T23:11:58.881Z,18.72
2023-01-19T23:17:20.612Z,18.65
2023-01-19T23:22:42.276Z,18.59
2023-01-19T23:28:07.230Z,18.52
2023-01-19T23:33:28.993Z,18.48
2023-01-19T23:38:52.964Z,18.43
2023-01-19T23:44:15.158Z,18.39
2023-01-19T23:49:36.951Z,18.35
2023-01-19T23:54:59.107Z,18.31
